createdAt,value
2023-01-22T00:01:13.143Z,85.14
2023-01-22T00:03:40.820Z,85.08
2023-01-22T00:06:08.380Z,85.08
2023-01-22T00:08:35.615Z,85.14
2023-01-22T00:11:02.762Z,85.03
2023-01-22T00:13:29.913Z,85.47
2023-01-22T00:15:57.814Z,85.43
2023-01-22T00:18:25.506Z,85.59
2023-01-22T00:20:53.802Z,85.61
2023-01-22T00:23:21.077Z,85.70
2023-01-22T00:25:48.224Z,85.67
2023-01-22T00:28:17.110Z,85.78
2023-01-22T00:30:44.259Z,85.80
2023-01-22T00:33:11.745Z,85.77
2023-01-22T00:35:39.895Z,85.84
2023-01-22T00:38:07.145Z,86.28
2023-01-22T00:40:34.463Z,86.24
2023-01-22T00:43:01.752Z,86.33
2023-01-22T00:45:29.102Z,86.28
2023-01-22T00:47:56.158Z,86.54
2023-01-22T00:50:23.226Z,86.33
2023-01-22T00:52:50.345Z,86.57
2023-01-22T00:55:17.699Z,86.49
2023-01-22T00:57:45.157Z,86.47
2023-01-22T01:00:15.201Z,86.58
2023-01-22T01:03:01.262Z,86.77
2023-01-22T01:05:28.518Z,87.30
2023-01-22T01:07:55.670Z,87.18
2023-01-22T01:10:23.022Z,87.27
2023-01-22T01:12:50.174Z,87.44
2023-01-22T01:15:19.173Z,87.98
2023-01-22T01:17:46.622Z,87.87
2023-01-22T01:20:13.897Z,87.66
2023-01-22T01:22:41.130Z,87.67
2023-01-22T01:25:08.380Z,87.65
2023-01-22T01:27:35.632Z,87.64
2023-01-22T01:30:02.813Z,87.49
2023-01-22T01:32:29.947Z,87.44
2023-01-22T01:34:57.184Z,87.39
2023-01-22T01:37:24.342Z,87.09
2023-01-22T01:39:54.547Z,87.55
2023-01-22T01:42:26.426Z,87.57
2023-01-22T01:45:32.384Z,87.69
2023-01-22T01:48:02.591Z,87.89
2023-01-22T01:50:29.844Z,87.53
2023-01-22T01:52:57.300Z,87.57
2023-01-22T01:55:27.873Z,87.83
2023-01-22T01:57:57.198Z,87.89
2023-01-22T02:06:44.508Z,87.60
2023-01-22T02:09:12.156Z,87.58
2023-01-22T02:11:39.921Z,87.50
2023-01-22T02:14:28.675Z,87.59
2023-01-22T02:17:15.699Z,87.27
2023-01-22T02:19:44.229Z,87.24
2023-01-22T02:22:26.269Z,87.16
2023-01-22T02:24:53.687Z,86.91
2023-01-22T02:27:21.078Z,86.97
2023-01-22T02:29:48.853Z,86.72
2023-01-22T02:32:16.206Z,86.63
2023-01-22T02:34:43.467Z,86.78
2023-01-22T02:37:10.915Z,86.71
2023-01-22T02:39:38.065Z,86.51
2023-01-22T02:42:06.137Z,86.71
2023-01-22T02:44:33.491Z,86.51
2023-01-22T02:47:00.800Z,86.75
2023-01-22T02:49:28.089Z,86.67
2023-01-22T02:51:55.351Z,86.53
2023-01-22T02:54:23.113Z,86.61
2023-01-22T02:56:50.886Z,86.28
2023-01-22T02:59:18.433Z,86.42
2023-01-22T03:01:45.680Z,86.21
2023-01-22T03:04:13.469Z,86.12
2023-01-22T03:06:46.129Z,86.02
2023-01-22T03:09:15.011Z,86.25
2023-01-22T03:11:43.290Z,86.10
2023-01-22T03:14:32.144Z,85.89
2023-01-22T03:17:18.164Z,85.84
2023-01-22T03:20:04.256Z,85.78
2023-01-22T03:22:32.215Z,85.68
2023-01-22T03:25:01.707Z,85.64
2023-01-22T03:27:30.314Z,85.38
2023-01-22T03:29:58.295Z,85.13
2023-01-22T03:32:25.818Z,84.91
2023-01-22T03:34:54.090Z,84.95
2023-01-22T03:37:21.855Z,84.75
2023-01-22T03:39:51.263Z,84.88
2023-01-22T03:42:25.278Z,84.58
2023-01-22T03:44:52.525Z,84.52
2023-01-22T03:47:20.116Z,84.41
2023-01-22T03:49:47.237Z,84.42
2023-01-22T03:52:14.572Z,84.37
2023-01-22T03:54:41.735Z,84.21
2023-01-22T03:57:09.701Z,84.25
2023-01-22T03:59:38.284Z,84.06
2023-01-22T04:02:05.459Z,84.15
2023-01-22T04:04:36.493Z,84.04
2023-01-22T04:07:03.524Z,84.05
2023-01-22T04:09:30.622Z,84.33
2023-01-22T04:11:58.546Z,84.09
2023-01-22T04:14:26.714Z,84.17
2023-01-22T04:16:59.302Z,84.04
2023-01-22T04:19:45.280Z,84.04
2023-01-22T04:22:36.698Z,84.05
2023-01-22T04:25:04.879Z,83.89
2023-01-22T04:27:32.019Z,83.94
2023-01-22T04:29:59.172Z,83.78
2023-01-22T04:32:26.232Z,83.77
2023-01-22T04:35:04.640Z,83.63
2023-01-22T04:37:38.642Z,83.45
2023-01-22T04:40:06.611Z,83.63
2023-01-22T04:42:36.626Z,83.31
2023-01-22T04:45:05.126Z,83.17
2023-01-22T04:47:32.469Z,82.78
2023-01-22T04:49:59.626Z,82.84
2023-01-22T04:52:26.777Z,82.88
2023-01-22T04:54:54.220Z,82.68
2023-01-22T04:57:22.493Z,82.72
2023-01-22T04:59:50.975Z,82.83
2023-01-22T05:02:18.540Z,82.96
2023-01-22T05:04:46.194Z,82.96
2023-01-22T05:07:13.962Z,82.57
2023-01-22T05:09:41.115Z,82.98
2023-01-22T05:12:08.261Z,83.17
2023-01-22T05:14:40.735Z,83.14
2023-01-22T05:17:08.701Z,82.89
2023-01-22T05:19:35.851Z,82.78
2023-01-22T05:22:06.231Z,82.72
2023-01-22T05:24:33.757Z,82.68
2023-01-22T05:27:01.088Z,82.77
2023-01-22T05:29:34.585Z,82.80
2023-01-22T05:32:15.996Z,82.64
2023-01-22T05:34:48.514Z,82.40
2023-01-22T05:37:15.695Z,82.75
2023-01-22T05:39:42.854Z,82.82
2023-01-22T05:42:15.972Z,82.86
2023-01-22T05:44:45.338Z,82.84
2023-01-22T05:47:13.721Z,82.50
2023-01-22T05:50:10.873Z,82.49
2023-01-22T05:52:38.019Z,82.41
2023-01-22T05:55:05.985Z,82.54
2023-01-22T05:57:40.116Z,82.60
2023-01-22T06:00:08.767Z,82.65
2023-01-22T06:02:44.140Z,82.52
2023-01-22T06:05:12.014Z,82.50
2023-01-22T06:07:40.694Z,82.60
2023-01-22T06:10:08.690Z,82.33
2023-01-22T06:12:39.973Z,82.53
2023-01-22T06:15:08.479Z,82.60
2023-01-22T06:17:35.932Z,82.25
2023-01-22T06:20:04.211Z,81.94
2023-01-22T06:22:33.023Z,82.01
2023-01-22T06:25:01.699Z,81.97
2023-01-22T06:27:41.326Z,81.68
2023-01-22T06:30:09.511Z,81.78
2023-01-22T06:32:36.749Z,81.77
2023-01-22T06:35:04.006Z,81.87
2023-01-22T06:37:31.051Z,81.47
2023-01-22T06:39:58.207Z,81.69
2023-01-22T06:42:29.552Z,81.38
2023-01-22T06:44:56.901Z,81.59
2023-01-22T06:47:25.487Z,81.18
2023-01-22T06:49:52.633Z,81.08
2023-01-22T06:52:19.785Z,80.98
2023-01-22T06:54:47.037Z,81.04
2023-01-22T06:57:14.393Z,81.05
2023-01-22T06:59:41.648Z,80.96
2023-01-22T07:02:16.691Z,80.83
2023-01-22T07:04:43.826Z,80.52
2023-01-22T07:07:11.288Z,80.60
2023-01-22T07:09:38.742Z,80.77
2023-01-22T07:12:07.529Z,80.42
2023-01-22T07:14:37.519Z,80.13
2023-01-22T07:17:05.018Z,79.88
2023-01-22T07:19:32.360Z,79.49
2023-01-22T07:21:59.610Z,79.42
2023-01-22T07:24:26.891Z,79.46
2023-01-22T07:26:54.110Z,79.35
2023-01-22T07:29:21.370Z,79.35
2023-01-22T07:31:49.877Z,79.13
2023-01-22T07:34:17.307Z,78.99
2023-01-22T07:36:46.706Z,77.98
2023-01-22T07:39:14.160Z,77.98
2023-01-22T07:41:41.310Z,77.83
2023-01-22T07:44:12.050Z,77.81
2023-01-22T07:46:39.333Z,77.69
2023-01-22T07:49:06.911Z,77.20
2023-01-22T07:51:34.001Z,77.05
2023-01-22T07:54:01.152Z,77.29
2023-01-22T07:56:29.303Z,77.47
2023-01-22T07:58:56.478Z,77.46
2023-01-22T08:01:23.758Z,77.33
2023-01-22T08:03:50.993Z,76.89
2023-01-22T08:06:18.563Z,76.84
2023-01-22T08:08:45.788Z,76.87
2023-01-22T08:11:13.146Z,76.32
2023-01-22T08:13:40.513Z,76.53
2023-01-22T08:16:09.810Z,76.24
2023-01-22T08:18:37.382Z,76.10
2023-01-22T08:21:04.833Z,76.31
2023-01-22T08:23:32.692Z,75.98
2023-01-22T08:26:00.799Z,75.94
2023-01-22T08:28:28.209Z,75.88
2023-01-22T08:31:02.246Z,75.96
2023-01-22T08:33:30.343Z,75.88
2023-01-22T08:35:57.645Z,75.65
2023-01-22T08:38:24.691Z,75.99
2023-01-22T08:40:53.907Z,75.70
2023-01-22T08:43:21.216Z,75.58
2023-01-22T08:45:49.407Z,75.40
2023-01-22T08:52:50.999Z,75.52
2023-01-22T08:55:18.047Z,75.22
2023-01-22T08:57:45.197Z,75.08
2023-01-22T09:00:13.715Z,75.36
2023-01-22T09:02:40.833Z,75.24
2023-01-22T09:05:08.658Z,75.00
2023-01-22T09:07:35.842Z,75.22
2023-01-22T09:10:04.280Z,74.88
2023-01-22T09:12:31.371Z,74.83
2023-01-22T09:14:58.672Z,74.49
2023-01-22T09:17:25.770Z,74.83
2023-01-22T09:19:52.867Z,74.81
2023-01-22T09:22:21.055Z,74.79
2023-01-22T09:24:48.968Z,74.34
2023-01-22T09:27:16.112Z,74.25
2023-01-22T09:29:45.312Z,74.11
2023-01-22T09:32:12.697Z,73.80
2023-01-22T09:34:40.179Z,74.20
2023-01-22T09:37:09.518Z,74.08
2023-01-22T09:39:36.832Z,73.84
2023-01-22T09:42:04.232Z,73.81
2023-01-22T09:44:38.405Z,73.80
2023-01-22T09:47:17.861Z,73.79
2023-01-22T09:50:21.894Z,73.67
2023-01-22T09:52:50.587Z,74.00
2023-01-22T09:55:19.228Z,74.19
2023-01-22T09:57:51.072Z,73.96
2023-01-22T10:00:24.119Z,73.54
2023-01-22T10:02:53.515Z,73.66
2023-01-22T10:05:34.235Z,73.51
2023-01-22T10:08:10.447Z,73.56
2023-01-22T10:10:37.595Z,73.56
2023-01-22T10:13:17.033Z,73.36
2023-01-22T10:15:44.286Z,73.17
2023-01-22T10:18:42.699Z,73.40
2023-01-22T10:21:50.295Z,73.15
2023-01-22T10:24:17.621Z,72.99
2023-01-22T10:26:55.215Z,72.93
2023-01-22T10:29:25.651Z,73.08
2023-01-22T10:31:55.292Z,72.96
2023-01-22T10:34:36.623Z,72.89
2023-01-22T10:37:14.858Z,73.03
2023-01-22T10:39:51.100Z,72.77
2023-01-22T10:42:23.310Z,72.53
2023-01-22T10:44:50.727Z,72.69
2023-01-22T10:47:20.977Z,72.47
2023-01-22T10:49:48.624Z,72.78
2023-01-22T10:52:34.906Z,72.97
2023-01-22T10:55:02.218Z,72.69
2023-01-22T10:57:34.146Z,72.84
2023-01-22T11:00:13.781Z,72.88
2023-01-22T11:02:47.583Z,72.71
2023-01-22T11:05:20.967Z,72.86
2023-01-22T11:07:50.915Z,72.93
2023-01-22T11:10:20.121Z,73.14
2023-01-22T11:12:58.081Z,73.18
2023-01-22T11:15:35.509Z,73.07
2023-01-22T11:18:03.132Z,73.07
2023-01-22T11:20:52.505Z,72.85
2023-01-22T11:23:48.324Z,72.65
2023-01-22T11:26:43.125Z,72.61
2023-01-22T11:29:52.361Z,72.49
2023-01-22T11:32:44.189Z,72.58
2023-01-22T11:35:33.078Z,72.73
2023-01-22T11:38:22.870Z,72.86
2023-01-22T11:41:05.037Z,72.96
2023-01-22T11:43:41.106Z,73.05
2023-01-22T11:46:34.072Z,72.83
2023-01-22T11:49:16.113Z,73.04
2023-01-22T11:52:21.797Z,73.30
2023-01-22T11:54:58.304Z,73.34
2023-01-22T11:57:56.439Z,73.26
2023-01-22T12:00:41.377Z,73.15
2023-01-22T12:03:23.428Z,72.92
2023-01-22T12:06:13.403Z,73.24
2023-01-22T12:08:51.083Z,73.39
2023-01-22T12:11:21.310Z,73.47
2023-01-22T12:14:12.331Z,73.75
2023-01-22T12:17:11.360Z,73.78
2023-01-22T12:19:46.463Z,73.66
2023-01-22T12:22:41.497Z,73.84
2023-01-22T12:25:31.406Z,74.04
2023-01-22T12:28:30.173Z,74.38
2023-01-22T12:31:01.749Z,74.33
2023-01-22T12:33:36.741Z,73.89
2023-01-22T12:36:04.579Z,74.05
2023-01-22T12:38:34.859Z,74.26
2023-01-22T12:41:03.194Z,74.32
2023-01-22T12:43:38.095Z,74.58
2023-01-22T12:46:22.226Z,74.80
2023-01-22T12:48:56.190Z,75.08
2023-01-22T12:51:45.243Z,74.68
2023-01-22T12:54:28.399Z,74.62
2023-01-22T12:56:59.650Z,74.97
2023-01-22T12:59:31.612Z,74.86
2023-01-22T13:02:04.177Z,74.87
2023-01-22T13:04:33.730Z,74.92
2023-01-22T13:07:06.813Z,74.97
2023-01-22T13:09:37.265Z,74.98
2023-01-22T13:12:11.990Z,75.01
2023-01-22T13:14:41.425Z,74.82
2023-01-22T13:17:18.065Z,74.96
2023-01-22T13:19:47.575Z,74.98
2023-01-22T13:22:19.979Z,75.20
2023-01-22T13:24:58.750Z,75.17
2023-01-22T13:27:29.519Z,75.10
2023-01-22T13:30:31.586Z,75.41
2023-01-22T13:33:06.820Z,75.67
2023-01-22T13:35:36.316Z,75.86
2023-01-22T13:38:04.688Z,76.13
2023-01-22T13:40:42.665Z,76.27
2023-01-22T13:43:19.400Z,76.10
2023-01-22T13:45:46.840Z,76.51
2023-01-22T13:48:20.736Z,76.77
2023-01-22T13:50:53.732Z,76.61
2023-01-22T13:53:26.369Z,76.80
2023-01-22T13:55:53.679Z,76.80
2023-01-22T13:58:50.488Z,76.96
2023-01-22T14:01:29.638Z,76.61
2023-01-22T14:04:07.866Z,76.99
2023-01-22T14:06:52.084Z,77.46
2023-01-22T14:09:35.926Z,77.66
2023-01-22T14:12:21.123Z,77.85
2023-01-22T14:14:48.281Z,77.91
2023-01-22T14:17:36.150Z,78.29
2023-01-22T14:20:05.373Z,78.49
2023-01-22T14:22:32.736Z,78.97
2023-01-22T14:24:59.984Z,79.38
2023-01-22T14:27:30.249Z,79.38
2023-01-22T14:29:57.364Z,79.93
2023-01-22T14:32:24.815Z,80.07
2023-01-22T14:34:51.980Z,80.06
2023-01-22T14:37:21.574Z,80.74
2023-01-22T14:39:48.897Z,80.86
2023-01-22T14:42:16.662Z,81.37
2023-01-22T14:44:46.091Z,81.46
2023-01-22T14:47:13.350Z,81.89
2023-01-22T14:49:40.900Z,82.33
2023-01-22T14:52:08.265Z,82.03
2023-01-22T14:54:36.128Z,82.58
2023-01-22T14:57:06.344Z,82.55
2023-01-22T15:05:42.141Z,83.16
2023-01-22T15:08:09.801Z,83.33
2023-01-22T15:10:37.062Z,83.73
2023-01-22T15:13:05.060Z,83.62
2023-01-22T15:15:33.001Z,84.29
2023-01-22T15:18:00.459Z,83.75
2023-01-22T15:20:27.904Z,83.78
2023-01-22T15:22:55.157Z,84.23
2023-01-22T15:25:22.318Z,84.23
2023-01-22T15:27:50.072Z,84.36
2023-01-22T15:30:17.962Z,84.07
2023-01-22T15:32:45.515Z,84.00
2023-01-22T15:35:13.500Z,84.08
2023-01-22T15:37:40.730Z,83.75
2023-01-22T15:40:10.909Z,84.22
2023-01-22T15:42:38.310Z,84.10
2023-01-22T15:45:07.395Z,83.60
2023-01-22T15:47:34.645Z,83.27
2023-01-22T15:50:01.859Z,83.03
2023-01-22T15:52:31.506Z,83.24
2023-01-22T15:55:00.700Z,83.41
2023-01-22T15:57:29.281Z,82.71
2023-01-22T15:59:56.638Z,82.67
2023-01-22T16:02:24.323Z,82.58
2023-01-22T16:04:51.765Z,82.29
2023-01-22T16:07:19.727Z,82.43
2023-01-22T16:09:49.019Z,82.31
2023-01-22T16:12:16.918Z,82.61
2023-01-22T16:14:44.245Z,82.31
2023-01-22T16:17:14.425Z,82.12
2023-01-22T16:19:41.821Z,82.23
2023-01-22T16:22:10.487Z,82.39
2023-01-22T16:24:38.846Z,82.19
2023-01-22T16:27:07.716Z,82.01
2023-01-22T16:29:41.423Z,82.09
2023-01-22T16:32:09.546Z,82.06
2023-01-22T16:34:36.902Z,82.03
2023-01-22T16:37:04.178Z,82.04
2023-01-22T16:39:34.846Z,81.97
2023-01-22T16:42:03.476Z,81.89
2023-01-22T16:44:33.458Z,81.95
2023-01-22T16:47:01.258Z,81.91
2023-01-22T16:49:33.395Z,82.10
2023-01-22T16:52:16.686Z,82.09
2023-01-22T16:54:50.599Z,82.22
2023-01-22T16:57:20.584Z,82.05
2023-01-22T16:59:48.233Z,82.04
2023-01-22T17:02:17.471Z,82.03
2023-01-22T17:04:45.867Z,82.23
2023-01-22T17:07:31.591Z,82.00
2023-01-22T17:10:00.897Z,81.74
2023-01-22T17:12:29.070Z,81.60
2023-01-22T17:15:00.665Z,81.77
2023-01-22T17:17:28.488Z,81.76
2023-01-22T17:19:55.648Z,81.88
2023-01-22T17:22:24.923Z,81.85
2023-01-22T17:24:55.111Z,81.91
2023-01-22T17:27:23.125Z,82.09
2023-01-22T17:29:50.439Z,82.09
2023-01-22T17:32:18.663Z,82.27
2023-01-22T17:34:45.906Z,82.32
2023-01-22T17:37:15.398Z,82.75
2023-01-22T17:39:45.857Z,82.19
2023-01-22T17:42:14.216Z,82.25
2023-01-22T17:44:41.883Z,82.41
2023-01-22T17:47:09.533Z,82.57
2023-01-22T17:49:38.079Z,82.64
2023-01-22T17:52:06.116Z,82.42
2023-01-22T17:54:33.475Z,82.64
2023-01-22T17:57:01.466Z,82.64
2023-01-22T17:59:28.962Z,82.45
2023-01-22T18:01:56.890Z,83.07
2023-01-22T18:04:24.483Z,82.74
2023-01-22T18:06:53.585Z,82.77
2023-01-22T18:09:22.404Z,82.46
2023-01-22T18:11:49.995Z,82.64
2023-01-22T18:14:22.077Z,82.51
2023-01-22T18:16:49.739Z,82.46
2023-01-22T18:19:18.840Z,82.67
2023-01-22T18:21:46.305Z,82.31
2023-01-22T18:24:14.652Z,82.13
2023-01-22T18:26:42.784Z,81.98
2023-01-22T18:29:11.567Z,81.91
2023-01-22T18:31:39.744Z,82.09
2023-01-22T18:34:07.693Z,81.70
2023-01-22T18:36:37.025Z,81.84
2023-01-22T18:39:09.160Z,81.77
2023-01-22T18:41:36.837Z,81.70
2023-01-22T18:44:04.304Z,81.90
2023-01-22T18:46:34.223Z,81.60
2023-01-22T18:49:05.051Z,81.46
2023-01-22T18:51:32.713Z,81.52
2023-01-22T18:54:01.343Z,81.20
2023-01-22T18:56:28.647Z,81.13
2023-01-22T18:58:59.197Z,81.23
2023-01-22T19:01:32.308Z,81.08
2023-01-22T19:04:01.467Z,80.99
2023-01-22T19:06:33.248Z,80.54
2023-01-22T19:09:06.941Z,80.86
2023-01-22T19:11:37.211Z,80.98
2023-01-22T19:14:06.543Z,80.88
2023-01-22T19:16:34.206Z,81.07
2023-01-22T19:19:04.893Z,80.91
2023-01-22T19:21:33.185Z,80.93
2023-01-22T19:24:01.701Z,81.07
2023-01-22T19:26:33.716Z,80.97
2023-01-22T19:29:03.857Z,81.20
2023-01-22T19:31:33.637Z,81.15
2023-01-22T19:34:03.187Z,81.16
2023-01-22T19:36:33.890Z,81.16
2023-01-22T19:39:02.854Z,81.28
2023-01-22T19:41:31.002Z,81.39
2023-01-22T19:44:00.515Z,81.01
2023-01-22T19:46:27.891Z,81.04
2023-01-22T19:48:55.966Z,81.10
2023-01-22T19:51:24.935Z,80.81
2023-01-22T19:53:53.423Z,80.85
2023-01-22T19:56:26.171Z,81.52
2023-01-22T19:58:56.843Z,81.15
2023-01-22T20:01:24.591Z,81.12
2023-01-22T20:04:20.765Z,81.17
2023-01-22T20:06:53.120Z,81.42
2023-01-22T20:09:22.137Z,81.58
2023-01-22T20:11:54.193Z,81.90
2023-01-22T20:14:26.464Z,81.52
2023-01-22T20:16:54.723Z,81.70
2023-01-22T20:19:22.587Z,81.49
2023-01-22T20:21:50.112Z,81.80
2023-01-22T20:24:17.505Z,81.79
2023-01-22T20:26:44.813Z,81.83
2023-01-22T20:29:13.337Z,81.66
2023-01-22T20:31:40.846Z,81.54
2023-01-22T20:34:08.133Z,81.99
2023-01-22T20:36:35.791Z,81.67
2023-01-22T20:39:03.501Z,81.79
2023-01-22T20:41:32.729Z,81.69
2023-01-22T20:44:00.106Z,82.09
2023-01-22T20:46:27.594Z,82.04
2023-01-22T20:48:57.386Z,81.94
2023-01-22T20:51:26.913Z,81.93
2023-01-22T20:53:54.769Z,82.22
2023-01-22T20:56:28.529Z,82.20
2023-01-22T20:58:57.401Z,82.14
2023-01-22T21:01:24.780Z,82.31
2023-01-22T21:03:52.349Z,82.13
2023-01-22T21:06:20.200Z,82.12
2023-01-22T21:08:51.978Z,82.34
2023-01-22T21:11:20.762Z,82.59
2023-01-22T21:13:48.916Z,82.58
2023-01-22T21:16:26.656Z,82.50
2023-01-22T21:19:08.341Z,82.50
2023-01-22T21:21:35.925Z,82.68
2023-01-22T21:24:03.300Z,82.79
2023-01-22T21:26:31.542Z,82.76
2023-01-22T21:29:03.941Z,82.32
2023-01-22T21:31:31.477Z,82.60
2023-01-22T21:34:03.316Z,82.68
2023-01-22T21:36:31.672Z,82.81
2023-01-22T21:38:59.417Z,82.94
2023-01-22T21:41:26.658Z,82.98
2023-01-22T21:44:12.995Z,83.07
2023-01-22T21:46:42.228Z,82.94
2023-01-22T21:49:19.997Z,83.19
2023-01-22T21:51:47.129Z,83.15
2023-01-22T21:54:16.990Z,83.32
2023-01-22T21:56:44.069Z,83.38
2023-01-22T21:59:11.137Z,83.33
2023-01-22T22:01:38.298Z,83.82
2023-01-22T22:04:05.848Z,83.64
2023-01-22T22:06:33.211Z,83.31
2023-01-22T22:09:02.195Z,83.31
2023-01-22T22:11:29.261Z,83.43
2023-01-22T22:13:56.821Z,83.42
2023-01-22T22:16:24.217Z,83.45
2023-01-22T22:18:51.445Z,83.44
2023-01-22T22:21:18.746Z,83.46
2023-01-22T22:23:45.998Z,83.88
2023-01-22T22:26:13.176Z,83.80
2023-01-22T22:28:40.390Z,84.08
2023-01-22T22:31:15.067Z,83.54
2023-01-22T22:33:43.136Z,83.55
2023-01-22T22:36:10.538Z,83.13
2023-01-22T22:38:37.808Z,83.25
2023-01-22T22:41:06.811Z,83.31
2023-01-22T22:43:39.339Z,82.76
2023-01-22T22:46:08.770Z,82.66
2023-01-22T22:48:35.979Z,82.81
2023-01-22T22:51:14.534Z,82.94
2023-01-22T22:53:41.801Z,82.90
2023-01-22T22:56:09.727Z,82.77
2023-01-22T22:58:36.947Z,82.99
2023-01-22T23:01:08.798Z,82.74
2023-01-22T23:03:37.233Z,82.82
2023-01-22T23:06:10.496Z,82.99
2023-01-22T23:08:58.077Z,82.91
2023-01-22T23:11:30.155Z,82.47
2023-01-22T23:14:03.287Z,82.35
2023-01-22T23:16:32.745Z,82.46
2023-01-22T23:19:01.324Z,82.00
2023-01-22T23:21:28.698Z,81.95
2023-01-22T23:23:56.101Z,81.56
2023-01-22T23:26:28.265Z,81.65
2023-01-22T23:29:02.829Z,81.20
2023-01-22T23:31:31.667Z,81.08
2023-01-22T23:33:59.718Z,80.73
2023-01-22T23:36:27.291Z,80.81
2023-01-22T23:38:54.777Z,80.62
2023-01-22T23:41:22.135Z,80.71
2023-01-22T23:43:50.208Z,80.64
2023-01-22T23:46:27.965Z,80.62
2023-01-22T23:48:55.767Z,80.23
2023-01-22T23:51:24.038Z,79.86
2023-01-22T23:53:52.793Z,80.06
2023-01-22T23:56:24.959Z,80.03
2023-01-22T23:58:55.874Z,80.09
